sensor_id;sensor_type;location;lat;lon;timestamp;P1;durP1;ratioP1;P2;durP2;ratioP2
48871;SDS011;36154;51.674;7.824;2023-06-14T00:00:17;4.57;;;2.50;;
48871;SDS011;36154;51.674;7.824;2023-06-14T00:02:42;4.95;;;2.50;;
48871;SDS011;36154;51.674;7.824;2023-06-14T00:05:07;2.38;;;2.17;;
48871;SDS011;36154;51.674;7.824;2023-06-14T00:07:37;2.85;;;2.70;;
48871;SDS011;36154;51.674;7.824;2023-06-14T00:10:07;2.42;;;2.33;;
48871;SDS011;36154;51.674;7.824;2023-06-14T00:12:34;6.88;;;2.63;;
48871;SDS011;36154;51.674;7.824;2023-06-14T00:14:59;5.88;;;2.33;;
48871;SDS011;36154;51.674;7.824;2023-06-14T00:17:26;2.83;;;2.55;;
48871;SDS011;36154;51.674;7.824;2023-06-14T00:19:55;6.35;;;5.43;;
48871;SDS011;36154;51.674;7.824;2023-06-14T00:22:21;12.32;;;7.18;;
48871;SDS011;36154;51.674;7.824;2023-06-14T00:24:49;5.57;;;4.60;;
48871;SDS011;36154;51.674;7.824;2023-06-14T00:27:15;4.75;;;3.25;;
48871;SDS011;36154;51.674;7.824;2023-06-14T00:29:40;3.90;;;3.03;;
48871;SDS011;36154;51.674;7.824;2023-06-14T00:32:06;5.88;;;2.60;;
48871;SDS011;36154;51.674;7.824;2023-06-14T00:34:31;6.20;;;2.78;;
48871;SDS011;36154;51.674;7.824;2023-06-14T00:36:56;2.47;;;2.22;;
48871;SDS011;36154;51.674;7.824;2023-06-14T00:39:22;2.78;;;2.58;;
48871;SDS011;36154;51.674;7.824;2023-06-14T00:41:47;3.28;;;2.45;;
48871;SDS011;36154;51.674;7.824;2023-06-14T00:44:12;3.92;;;2.20;;
48871;SDS011;36154;51.674;7.824;2023-06-14T00:46:41;2.20;;;2.00;;
48871;SDS011;36154;51.674;7.824;2023-06-14T00:49:09;5.72;;;2.40;;
48871;SDS011;36154;51.674;7.824;2023-06-14T00:51:35;2.38;;;2.17;;
48871;SDS011;36154;51.674;7.824;2023-06-14T00:54:02;5.72;;;2.13;;
48871;SDS011;36154;51.674;7.824;2023-06-14T00:56:28;6.45;;;2.17;;
48871;SDS011;36154;51.674;7.824;2023-06-14T00:58:54;4.22;;;2.00;;
48871;SDS011;36154;51.674;7.824;2023-06-14T01:01:20;5.88;;;2.40;;
48871;SDS011;36154;51.674;7.824;2023-06-14T01:03:46;5.47;;;2.35;;
48871;SDS011;36154;51.674;7.824;2023-06-14T01:09:20;3.00;;;2.25;;
48871;SDS011;36154;51.674;7.824;2023-06-14T01:12:15;4.50;;;2.40;;
48871;SDS011;36154;51.674;7.824;2023-06-14T01:14:44;7.00;;;2.63;;
48871;SDS011;36154;51.674;7.824;2023-06-14T01:17:12;2.60;;;2.30;;
48871;SDS011;36154;51.674;7.824;2023-06-14T01:19:44;2.67;;;2.22;;
48871;SDS011;36154;51.674;7.824;2023-06-14T01:22:10;4.78;;;2.42;;
48871;SDS011;36154;51.674;7.824;2023-06-14T01:24:36;4.97;;;2.30;;
48871;SDS011;36154;51.674;7.824;2023-06-14T01:27:02;3.15;;;2.47;;
48871;SDS011;36154;51.674;7.824;2023-06-14T01:29:28;5.18;;;2.25;;
48871;SDS011;36154;51.674;7.824;2023-06-14T01:31:58;4.32;;;2.33;;
48871;SDS011;36154;51.674;7.824;2023-06-14T01:34:24;6.05;;;2.63;;
48871;SDS011;36154;51.674;7.824;2023-06-14T01:36:50;2.65;;;1.90;;
48871;SDS011;36154;51.674;7.824;2023-06-14T01:39:17;4.18;;;2.40;;
48871;SDS011;36154;51.674;7.824;2023-06-14T01:41:43;5.22;;;2.53;;
48871;SDS011;36154;51.674;7.824;2023-06-14T01:44:10;3.65;;;2.00;;
48871;SDS011;36154;51.674;7.824;2023-06-14T01:46:38;4.35;;;2.20;;
48871;SDS011;36154;51.674;7.824;2023-06-14T01:49:05;2.80;;;2.15;;
48871;SDS011;36154;51.674;7.824;2023-06-14T01:51:30;3.65;;;2.10;;
48871;SDS011;36154;51.674;7.824;2023-06-14T01:53:56;2.10;;;1.98;;
48871;SDS011;36154;51.674;7.824;2023-06-14T01:56:22;3.13;;;2.00;;
48871;SDS011;36154;51.674;7.824;2023-06-14T01:58:47;6.03;;;2.50;;
48871;SDS011;36154;51.674;7.824;2023-06-14T02:01:13;2.35;;;2.13;;
48871;SDS011;36154;51.674;7.824;2023-06-14T02:03:41;3.20;;;2.20;;
48871;SDS011;36154;51.674;7.824;2023-06-14T02:06:09;7.25;;;2.42;;
48871;SDS011;36154;51.674;7.824;2023-06-14T02:08:35;5.50;;;2.00;;
48871;SDS011;36154;51.674;7.824;2023-06-14T02:11:00;2.85;;;2.40;;
48871;SDS011;36154;51.674;7.824;2023-06-14T02:13:26;4.63;;;2.05;;
48871;SDS011;36154;51.674;7.824;2023-06-14T02:15:51;2.38;;;2.03;;
48871;SDS011;36154;51.674;7.824;2023-06-14T02:18:19;3.95;;;2.10;;
48871;SDS011;36154;51.674;7.824;2023-06-14T02:20:46;6.68;;;2.10;;
48871;SDS011;36154;51.674;7.824;2023-06-14T02:23:11;3.22;;;2.58;;
48871;SDS011;36154;51.674;7.824;2023-06-14T02:25:37;2.40;;;2.20;;
48871;SDS011;36154;51.674;7.824;2023-06-14T02:28:02;2.95;;;2.30;;
48871;SDS011;36154;51.674;7.824;2023-06-14T02:30:28;3.08;;;2.15;;
48871;SDS011;36154;51.674;7.824;2023-06-14T02:32:53;2.20;;;2.00;;
48871;SDS011;36154;51.674;7.824;2023-06-14T02:35:18;4.32;;;2.50;;
48871;SDS011;36154;51.674;7.824;2023-06-14T02:37:45;8.05;;;2.58;;
48871;SDS011;36154;51.674;7.824;2023-06-14T02:40:11;2.33;;;2.20;;
48871;SDS011;36154;51.674;7.824;2023-06-14T02:42:36;5.80;;;2.63;;
48871;SDS011;36154;51.674;7.824;2023-06-14T02:45:02;5.57;;;2.47;;
48871;SDS011;36154;51.674;7.824;2023-06-14T02:47:29;3.35;;;2.45;;
48871;SDS011;36154;51.674;7.824;2023-06-14T02:49:54;4.18;;;2.00;;
48871;SDS011;36154;51.674;7.824;2023-06-14T02:52:20;3.45;;;2.00;;
48871;SDS011;36154;51.674;7.824;2023-06-14T02:54:45;3.50;;;2.35;;
48871;SDS011;36154;51.674;7.824;2023-06-14T02:57:12;5.25;;;2.15;;
48871;SDS011;36154;51.674;7.824;2023-06-14T02:59:37;4.43;;;2.70;;
48871;SDS011;36154;51.674;7.824;2023-06-14T03:02:03;7.20;;;2.40;;
48871;SDS011;36154;51.674;7.824;2023-06-14T03:04:28;4.15;;;2.10;;
48871;SDS011;36154;51.674;7.824;2023-06-14T03:06:54;4.28;;;2.30;;
48871;SDS011;36154;51.674;7.824;2023-06-14T03:09:19;3.15;;;1.92;;
48871;SDS011;36154;51.674;7.824;2023-06-14T03:11:45;4.45;;;2.38;;
48871;SDS011;36154;51.674;7.824;2023-06-14T03:14:10;4.88;;;2.30;;
48871;SDS011;36154;51.674;7.824;2023-06-14T03:16:36;4.80;;;2.20;;
48871;SDS011;36154;51.674;7.824;2023-06-14T03:19:02;6.10;;;2.92;;
48871;SDS011;36154;51.674;7.824;2023-06-14T03:21:27;4.70;;;2.63;;
48871;SDS011;36154;51.674;7.824;2023-06-14T03:23:53;4.30;;;2.50;;
48871;SDS011;36154;51.674;7.824;2023-06-14T03:26:18;2.80;;;2.50;;
48871;SDS011;36154;51.674;7.824;2023-06-14T03:28:44;2.83;;;2.10;;
48871;SDS011;36154;51.674;7.824;2023-06-14T03:31:11;2.25;;;2.00;;
48871;SDS011;36154;51.674;7.824;2023-06-14T03:33:36;9.20;;;2.17;;
48871;SDS011;36154;51.674;7.824;2023-06-14T03:36:02;3.90;;;2.53;;
48871;SDS011;36154;51.674;7.824;2023-06-14T03:38:28;3.08;;;2.10;;
48871;SDS011;36154;51.674;7.824;2023-06-14T03:40:53;4.97;;;2.90;;
48871;SDS011;36154;51.674;7.824;2023-06-14T03:43:18;2.58;;;2.38;;
48871;SDS011;36154;51.674;7.824;2023-06-14T03:45:43;2.17;;;2.08;;
48871;SDS011;36154;51.674;7.824;2023-06-14T03:48:09;3.97;;;2.35;;
48871;SDS011;36154;51.674;7.824;2023-06-14T03:50:35;4.45;;;2.00;;
48871;SDS011;36154;51.674;7.824;2023-06-14T03:53:02;3.53;;;2.40;;
48871;SDS011;36154;51.674;7.824;2023-06-14T03:55:28;4.80;;;2.33;;
48871;SDS011;36154;51.674;7.824;2023-06-14T03:57:56;4.75;;;2.28;;
48871;SDS011;36154;51.674;7.824;2023-06-14T04:00:23;5.13;;;2.17;;
48871;SDS011;36154;51.674;7.824;2023-06-14T04:02:48;3.53;;;2.33;;
48871;SDS011;36154;51.674;7.824;2023-06-14T04:05:14;4.13;;;2.22;;
48871;SDS011;36154;51.674;7.824;2023-06-14T04:07:41;5.50;;;2.45;;
48871;SDS011;36154;51.674;7.824;2023-06-14T04:10:10;5.50;;;2.15;;
48871;SDS011;36154;51.674;7.824;2023-06-14T04:12:38;2.63;;;2.40;;
48871;SDS011;36154;51.674;7.824;2023-06-14T04:15:04;3.83;;;2.38;;
48871;SDS011;36154;51.674;7.824;2023-06-14T04:17:33;4.60;;;2.35;;
48871;SDS011;36154;51.674;7.824;2023-06-14T04:19:59;2.13;;;2.03;;
48871;SDS011;36154;51.674;7.824;2023-06-14T04:22:26;9.18;;;2.22;;
48871;SDS011;36154;51.674;7.824;2023-06-14T04:24:55;7.03;;;2.38;;
48871;SDS011;36154;51.674;7.824;2023-06-14T04:27:24;6.25;;;2.40;;
48871;SDS011;36154;51.674;7.824;2023-06-14T04:29:54;4.78;;;2.03;;
48871;SDS011;36154;51.674;7.824;2023-06-14T04:32:26;3.35;;;2.33;;
48871;SDS011;36154;51.674;7.824;2023-06-14T04:34:57;3.42;;;1.98;;
48871;SDS011;36154;51.674;7.824;2023-06-14T04:37:24;6.22;;;2.20;;
48871;SDS011;36154;51.674;7.824;2023-06-14T04:39:53;3.50;;;1.98;;
48871;SDS011;36154;51.674;7.824;2023-06-14T04:42:20;5.85;;;2.75;;
48871;SDS011;36154;51.674;7.824;2023-06-14T04:44:49;6.75;;;2.38;;
48871;SDS011;36154;51.674;7.824;2023-06-14T04:47:15;3.75;;;1.98;;
48871;SDS011;36154;51.674;7.824;2023-06-14T04:49:41;2.78;;;2.15;;
48871;SDS011;36154;51.674;7.824;2023-06-14T04:52:07;2.90;;;2.08;;
48871;SDS011;36154;51.674;7.824;2023-06-14T04:54:35;3.20;;;2.90;;
48871;SDS011;36154;51.674;7.824;2023-06-14T04:57:02;2.65;;;2.45;;
48871;SDS011;36154;51.674;7.824;2023-06-14T04:59:28;3.03;;;2.53;;
48871;SDS011;36154;51.674;7.824;2023-06-14T05:01:58;3.65;;;2.38;;
48871;SDS011;36154;51.674;7.824;2023-06-14T05:04:24;6.03;;;2.45;;
48871;SDS011;36154;51.674;7.824;2023-06-14T05:06:51;7.47;;;2.35;;
48871;SDS011;36154;51.674;7.824;2023-06-14T05:09:19;5.00;;;2.30;;
48871;SDS011;36154;51.674;7.824;2023-06-14T05:11:46;5.28;;;2.20;;
48871;SDS011;36154;51.674;7.824;2023-06-14T05:14:12;4.57;;;2.30;;
48871;SDS011;36154;51.674;7.824;2023-06-14T05:16:38;5.25;;;1.85;;
48871;SDS011;36154;51.674;7.824;2023-06-14T05:19:04;3.92;;;2.05;;
48871;SDS011;36154;51.674;7.824;2023-06-14T05:21:29;12.55;;;2.17;;
48871;SDS011;36154;51.674;7.824;2023-06-14T05:23:56;3.28;;;2.08;;
48871;SDS011;36154;51.674;7.824;2023-06-14T05:26:21;9.63;;;2.80;;
48871;SDS011;36154;51.674;7.824;2023-06-14T05:28:48;4.15;;;2.42;;
48871;SDS011;36154;51.674;7.824;2023-06-14T05:31:14;3.42;;;2.40;;
48871;SDS011;36154;51.674;7.824;2023-06-14T05:33:40;6.88;;;2.40;;
48871;SDS011;36154;51.674;7.824;2023-06-14T05:36:05;3.63;;;2.10;;
48871;SDS011;36154;51.674;7.824;2023-06-14T05:38:30;5.40;;;2.33;;
48871;SDS011;36154;51.674;7.824;2023-06-14T05:40:55;2.90;;;2.70;;
48871;SDS011;36154;51.674;7.824;2023-06-14T05:43:21;2.67;;;2.50;;
48871;SDS011;36154;51.674;7.824;2023-06-14T05:45:46;4.82;;;2.42;;
48871;SDS011;36154;51.674;7.824;2023-06-14T05:48:11;3.85;;;2.20;;
48871;SDS011;36154;51.674;7.824;2023-06-14T05:50:37;3.08;;;2.00;;
48871;SDS011;36154;51.674;7.824;2023-06-14T05:53:02;4.45;;;2.05;;
48871;SDS011;36154;51.674;7.824;2023-06-14T05:55:27;4.60;;;2.42;;
48871;SDS011;36154;51.674;7.824;2023-06-14T05:57:52;4.47;;;2.25;;
48871;SDS011;36154;51.674;7.824;2023-06-14T06:00:18;13.13;;;3.20;;
48871;SDS011;36154;51.674;7.824;2023-06-14T06:02:44;10.55;;;3.20;;
48871;SDS011;36154;51.674;7.824;2023-06-14T06:05:12;9.00;;;2.47;;
48871;SDS011;36154;51.674;7.824;2023-06-14T06:07:38;2.90;;;2.00;;
48871;SDS011;36154;51.674;7.824;2023-06-14T06:10:09;2.60;;;2.40;;
48871;SDS011;36154;51.674;7.824;2023-06-14T06:12:34;8.48;;;2.60;;
48871;SDS011;36154;51.674;7.824;2023-06-14T06:15:00;4.13;;;2.38;;
48871;SDS011;36154;51.674;7.824;2023-06-14T06:17:26;2.55;;;2.25;;
48871;SDS011;36154;51.674;7.824;2023-06-14T06:19:51;5.20;;;1.98;;
48871;SDS011;36154;51.674;7.824;2023-06-14T06:22:16;3.97;;;2.10;;
48871;SDS011;36154;51.674;7.824;2023-06-14T06:24:42;3.50;;;2.05;;
48871;SDS011;36154;51.674;7.824;2023-06-14T06:27:07;3.22;;;1.90;;
48871;SDS011;36154;51.674;7.824;2023-06-14T06:29:33;1.60;;;1.50;;
48871;SDS011;36154;51.674;7.824;2023-06-14T06:31:58;2.80;;;1.83;;
48871;SDS011;36154;51.674;7.824;2023-06-14T06:34:23;3.75;;;1.90;;
48871;SDS011;36154;51.674;7.824;2023-06-14T06:36:49;4.15;;;1.63;;
48871;SDS011;36154;51.674;7.824;2023-06-14T06:39:14;1.52;;;1.42;;
48871;SDS011;36154;51.674;7.824;2023-06-14T06:41:40;2.20;;;2.00;;
48871;SDS011;36154;51.674;7.824;2023-06-14T06:44:05;2.17;;;1.63;;
48871;SDS011;36154;51.674;7.824;2023-06-14T06:46:32;6.55;;;2.05;;
48871;SDS011;36154;51.674;7.824;2023-06-14T06:48:57;2.20;;;1.63;;
48871;SDS011;36154;51.674;7.824;2023-06-14T06:51:23;4.00;;;1.50;;
48871;SDS011;36154;51.674;7.824;2023-06-14T06:53:54;1.20;;;1.17;;
48871;SDS011;36154;51.674;7.824;2023-06-14T06:56:20;3.10;;;1.38;;
48871;SDS011;36154;51.674;7.824;2023-06-14T06:58:49;1.50;;;1.40;;
48871;SDS011;36154;51.674;7.824;2023-06-14T07:01:15;5.95;;;1.33;;
48871;SDS011;36154;51.674;7.824;2023-06-14T07:03:41;1.42;;;1.20;;
48871;SDS011;36154;51.674;7.824;2023-06-14T07:06:06;2.90;;;1.20;;
48871;SDS011;36154;51.674;7.824;2023-06-14T07:08:31;4.18;;;1.35;;
48871;SDS011;36154;51.674;7.824;2023-06-14T07:10:57;2.90;;;1.58;;
48871;SDS011;36154;51.674;7.824;2023-06-14T07:13:22;1.33;;;1.23;;
48871;SDS011;36154;51.674;7.824;2023-06-14T07:15:47;1.95;;;1.10;;
48871;SDS011;36154;51.674;7.824;2023-06-14T07:18:13;1.83;;;1.25;;
48871;SDS011;36154;51.674;7.824;2023-06-14T07:20:38;1.92;;;0.95;;
48871;SDS011;36154;51.674;7.824;2023-06-14T07:23:03;3.17;;;1.10;;
48871;SDS011;36154;51.674;7.824;2023-06-14T07:25:30;1.65;;;0.70;;
48871;SDS011;36154;51.674;7.824;2023-06-14T07:27:55;2.35;;;0.80;;
48871;SDS011;36154;51.674;7.824;2023-06-14T07:30:20;4.22;;;1.27;;
48871;SDS011;36154;51.674;7.824;2023-06-14T07:32:46;2.22;;;1.20;;
48871;SDS011;36154;51.674;7.824;2023-06-14T07:35:11;4.63;;;1.20;;
48871;SDS011;36154;51.674;7.824;2023-06-14T07:37:37;1.58;;;1.30;;
48871;SDS011;36154;51.674;7.824;2023-06-14T07:40:02;1.55;;;1.05;;
48871;SDS011;36154;51.674;7.824;2023-06-14T07:42:31;2.55;;;1.00;;
48871;SDS011;36154;51.674;7.824;2023-06-14T07:44:58;3.30;;;1.17;;
48871;SDS011;36154;51.674;7.824;2023-06-14T07:47:23;2.15;;;1.30;;
48871;SDS011;36154;51.674;7.824;2023-06-14T07:49:49;2.20;;;1.30;;
48871;SDS011;36154;51.674;7.824;2023-06-14T07:52:14;1.77;;;0.90;;
48871;SDS011;36154;51.674;7.824;2023-06-14T07:54:39;1.73;;;0.80;;
48871;SDS011;36154;51.674;7.824;2023-06-14T07:57:06;3.95;;;0.88;;
48871;SDS011;36154;51.674;7.824;2023-06-14T07:59:31;1.95;;;0.80;;
48871;SDS011;36154;51.674;7.824;2023-06-14T08:01:56;1.27;;;0.88;;
48871;SDS011;36154;51.674;7.824;2023-06-14T08:04:22;6.22;;;1.23;;
48871;SDS011;36154;51.674;7.824;2023-06-14T08:06:47;0.70;;;0.70;;
48871;SDS011;36154;51.674;7.824;2023-06-14T08:09:13;0.50;;;0.50;;
48871;SDS011;36154;51.674;7.824;2023-06-14T08:11:38;1.10;;;0.50;;
48871;SDS011;36154;51.674;7.824;2023-06-14T08:14:04;2.35;;;0.60;;
48871;SDS011;36154;51.674;7.824;2023-06-14T08:16:29;1.95;;;0.55;;
48871;SDS011;36154;51.674;7.824;2023-06-14T08:18:55;0.70;;;0.70;;
48871;SDS011;36154;51.674;7.824;2023-06-14T08:21:20;0.50;;;0.50;;
48871;SDS011;36154;51.674;7.824;2023-06-14T08:23:45;0.88;;;0.50;;
48871;SDS011;36154;51.674;7.824;2023-06-14T08:26:11;3.33;;;0.82;;
48871;SDS011;36154;51.674;7.824;2023-06-14T08:28:36;2.55;;;0.50;;
48871;SDS011;36154;51.674;7.824;2023-06-14T08:31:01;1.48;;;0.65;;
48871;SDS011;36154;51.674;7.824;2023-06-14T08:33:27;1.00;;;0.85;;
48871;SDS011;36154;51.674;7.824;2023-06-14T08:35:52;4.10;;;0.50;;
48871;SDS011;36154;51.674;7.824;2023-06-14T08:38:18;2.05;;;0.60;;
48871;SDS011;36154;51.674;7.824;2023-06-14T08:40:44;0.88;;;0.38;;
48871;SDS011;36154;51.674;7.824;2023-06-14T08:43:12;0.40;;;0.32;;
48871;SDS011;36154;51.674;7.824;2023-06-14T08:45:38;0.50;;;0.50;;
48871;SDS011;36154;51.674;7.824;2023-06-14T08:48:03;0.75;;;0.30;;
48871;SDS011;36154;51.674;7.824;2023-06-14T08:50:30;0.50;;;0.50;;
48871;SDS011;36154;51.674;7.824;2023-06-14T08:52:57;0.52;;;0.47;;
48871;SDS011;36154;51.674;7.824;2023-06-14T08:55:27;1.50;;;0.55;;
48871;SDS011;36154;51.674;7.824;2023-06-14T08:57:55;0.50;;;0.50;;
48871;SDS011;36154;51.674;7.824;2023-06-14T09:00:24;2.22;;;0.40;;
48871;SDS011;36154;51.674;7.824;2023-06-14T09:02:51;1.17;;;0.50;;
48871;SDS011;36154;51.674;7.824;2023-06-14T09:05:23;3.08;;;0.60;;
48871;SDS011;36154;51.674;7.824;2023-06-14T09:07:51;0.35;;;0.30;;
48871;SDS011;36154;51.674;7.824;2023-06-14T09:10:17;0.50;;;0.45;;
48871;SDS011;36154;51.674;7.824;2023-06-14T09:12:42;0.30;;;0.30;;
48871;SDS011;36154;51.674;7.824;2023-06-14T09:15:08;0.60;;;0.60;;
48871;SDS011;36154;51.674;7.824;2023-06-14T09:17:35;0.50;;;0.50;;
48871;SDS011;36154;51.674;7.824;2023-06-14T09:20:01;0.38;;;0.38;;
48871;SDS011;36154;51.674;7.824;2023-06-14T09:22:31;0.45;;;0.45;;
48871;SDS011;36154;51.674;7.824;2023-06-14T09:24:56;0.30;;;0.30;;
48871;SDS011;36154;51.674;7.824;2023-06-14T09:27:22;0.50;;;0.43;;
48871;SDS011;36154;51.674;7.824;2023-06-14T09:29:47;1.05;;;0.50;;
48871;SDS011;36154;51.674;7.824;2023-06-14T09:32:12;0.80;;;0.53;;
48871;SDS011;36154;51.674;7.824;2023-06-14T09:34:38;1.52;;;0.60;;
48871;SDS011;36154;51.674;7.824;2023-06-14T09:37:03;5.07;;;0.73;;
48871;SDS011;36154;51.674;7.824;2023-06-14T09:39:29;3.05;;;1.17;;
48871;SDS011;36154;51.674;7.824;2023-06-14T09:41:54;4.20;;;1.65;;
48871;SDS011;36154;51.674;7.824;2023-06-14T09:44:20;5.60;;;1.55;;
48871;SDS011;36154;51.674;7.824;2023-06-14T09:46:46;6.80;;;1.65;;
48871;SDS011;36154;51.674;7.824;2023-06-14T09:49:15;7.95;;;1.23;;
48871;SDS011;36154;51.674;7.824;2023-06-14T09:51:45;8.68;;;1.70;;
48871;SDS011;36154;51.674;7.824;2023-06-14T09:54:15;4.82;;;1.70;;
48871;SDS011;36154;51.674;7.824;2023-06-14T09:56:41;7.28;;;1.27;;
48871;SDS011;36154;51.674;7.824;2023-06-14T09:59:10;4.13;;;1.48;;
48871;SDS011;36154;51.674;7.824;2023-06-14T10:01:40;5.43;;;1.50;;
48871;SDS011;36154;51.674;7.824;2023-06-14T10:04:09;4.75;;;1.67;;
48871;SDS011;36154;51.674;7.824;2023-06-14T10:06:41;3.70;;;1.40;;
48871;SDS011;36154;51.674;7.824;2023-06-14T10:09:10;2.60;;;1.38;;
48871;SDS011;36154;51.674;7.824;2023-06-14T10:11:36;2.05;;;1.10;;
48871;SDS011;36154;51.674;7.824;2023-06-14T10:14:05;6.07;;;1.42;;
48871;SDS011;36154;51.674;7.824;2023-06-14T10:16:35;4.28;;;1.20;;
48871;SDS011;36154;51.674;7.824;2023-06-14T10:19:17;3.22;;;0.80;;
48871;SDS011;36154;51.674;7.824;2023-06-14T10:21:51;3.25;;;1.30;;
48871;SDS011;36154;51.674;7.824;2023-06-14T10:24:26;2.28;;;1.20;;
48871;SDS011;36154;51.674;7.824;2023-06-14T10:26:58;4.03;;;0.85;;
48871;SDS011;36154;51.674;7.824;2023-06-14T10:29:27;3.17;;;1.08;;
48871;SDS011;36154;51.674;7.824;2023-06-14T10:31:57;3.97;;;1.30;;
48871;SDS011;36154;51.674;7.824;2023-06-14T10:34:30;1.90;;;1.20;;
48871;SDS011;36154;51.674;7.824;2023-06-14T10:37:02;2.58;;;1.30;;
48871;SDS011;36154;51.674;7.824;2023-06-14T10:39:46;2.25;;;0.98;;
48871;SDS011;36154;51.674;7.824;2023-06-14T10:42:11;0.88;;;0.82;;
48871;SDS011;36154;51.674;7.824;2023-06-14T10:45:10;1.50;;;1.08;;
48871;SDS011;36154;51.674;7.824;2023-06-14T10:47:30;1.00;;;1.00;;
48871;SDS011;36154;51.674;7.824;2023-06-14T10:50:10;11.02;;;1.10;;
48871;SDS011;36154;51.674;7.824;2023-06-14T10:52:38;2.92;;;1.10;;
48871;SDS011;36154;51.674;7.824;2023-06-14T11:00:13;0.90;;;0.75;;
48871;SDS011;36154;51.674;7.824;2023-06-14T11:02:52;1.77;;;1.15;;
48871;SDS011;36154;51.674;7.824;2023-06-14T11:05:28;2.03;;;0.77;;
48871;SDS011;36154;51.674;7.824;2023-06-14T11:10:38;0.73;;;0.70;;
48871;SDS011;36154;51.674;7.824;2023-06-14T11:13:05;1.00;;;0.60;;
48871;SDS011;36154;51.674;7.824;2023-06-14T11:15:31;2.50;;;1.15;;
48871;SDS011;36154;51.674;7.824;2023-06-14T11:17:58;1.15;;;0.60;;
48871;SDS011;36154;51.674;7.824;2023-06-14T11:20:26;4.07;;;1.00;;
48871;SDS011;36154;51.674;7.824;2023-06-14T11:22:52;3.03;;;0.93;;
48871;SDS011;36154;51.674;7.824;2023-06-14T11:25:18;0.75;;;0.65;;
48871;SDS011;36154;51.674;7.824;2023-06-14T11:27:45;0.95;;;0.90;;
48871;SDS011;36154;51.674;7.824;2023-06-14T11:30:14;1.17;;;1.08;;
48871;SDS011;36154;51.674;7.824;2023-06-14T11:32:39;3.72;;;1.33;;
48871;SDS011;36154;51.674;7.824;2023-06-14T11:35:06;2.17;;;1.33;;
48871;SDS011;36154;51.674;7.824;2023-06-14T11:37:32;2.40;;;1.30;;
48871;SDS011;36154;51.674;7.824;2023-06-14T11:40:02;1.75;;;1.23;;
48871;SDS011;36154;51.674;7.824;2023-06-14T11:42:33;2.50;;;1.20;;
48871;SDS011;36154;51.674;7.824;2023-06-14T11:44:58;0.95;;;0.70;;
48871;SDS011;36154;51.674;7.824;2023-06-14T11:47:24;1.85;;;0.95;;
48871;SDS011;36154;51.674;7.824;2023-06-14T11:49:50;2.45;;;0.93;;
48871;SDS011;36154;51.674;7.824;2023-06-14T11:52:16;1.00;;;0.90;;
48871;SDS011;36154;51.674;7.824;2023-06-14T11:54:41;1.67;;;1.10;;
48871;SDS011;36154;51.674;7.824;2023-06-14T11:57:07;1.98;;;1.33;;
48871;SDS011;36154;51.674;7.824;2023-06-14T11:59:37;3.40;;;0.95;;
48871;SDS011;36154;51.674;7.824;2023-06-14T12:02:04;1.48;;;1.00;;
48871;SDS011;36154;51.674;7.824;2023-06-14T12:04:30;1.23;;;1.00;;
48871;SDS011;36154;51.674;7.824;2023-06-14T12:06:56;0.98;;;0.80;;
48871;SDS011;36154;51.674;7.824;2023-06-14T12:09:22;2.78;;;0.82;;
48871;SDS011;36154;51.674;7.824;2023-06-14T12:11:49;2.47;;;0.90;;
48871;SDS011;36154;51.674;7.824;2023-06-14T12:14:14;0.95;;;0.80;;
48871;SDS011;36154;51.674;7.824;2023-06-14T12:16:40;2.70;;;0.88;;
48871;SDS011;36154;51.674;7.824;2023-06-14T12:19:15;0.88;;;0.80;;
48871;SDS011;36154;51.674;7.824;2023-06-14T12:21:41;2.58;;;0.93;;
48871;SDS011;36154;51.674;7.824;2023-06-14T12:24:07;1.13;;;0.63;;
48871;SDS011;36154;51.674;7.824;2023-06-14T12:26:33;0.90;;;0.60;;
48871;SDS011;36154;51.674;7.824;2023-06-14T12:29:04;1.85;;;0.93;;
48871;SDS011;36154;51.674;7.824;2023-06-14T12:31:30;1.38;;;0.98;;
48871;SDS011;36154;51.674;7.824;2023-06-14T12:33:56;0.90;;;0.80;;
48871;SDS011;36154;51.674;7.824;2023-06-14T12:36:21;0.75;;;0.75;;
48871;SDS011;36154;51.674;7.824;2023-06-14T12:38:47;2.67;;;1.00;;
48871;SDS011;36154;51.674;7.824;2023-06-14T12:41:12;2.35;;;0.88;;
48871;SDS011;36154;51.674;7.824;2023-06-14T12:43:39;5.40;;;0.95;;
48871;SDS011;36154;51.674;7.824;2023-06-14T12:46:04;1.73;;;1.00;;
48871;SDS011;36154;51.674;7.824;2023-06-14T12:48:30;3.42;;;1.30;;
48871;SDS011;36154;51.674;7.824;2023-06-14T12:50:56;2.63;;;1.00;;
48871;SDS011;36154;51.674;7.824;2023-06-14T12:53:21;3.13;;;1.10;;
48871;SDS011;36154;51.674;7.824;2023-06-14T12:55:48;3.35;;;1.20;;
48871;SDS011;36154;51.674;7.824;2023-06-14T12:58:13;3.60;;;1.20;;
48871;SDS011;36154;51.674;7.824;2023-06-14T13:00:39;3.42;;;1.50;;
48871;SDS011;36154;51.674;7.824;2023-06-14T13:03:04;1.90;;;1.20;;
48871;SDS011;36154;51.674;7.824;2023-06-14T13:05:30;1.98;;;1.30;;
48871;SDS011;36154;51.674;7.824;2023-06-14T13:07:58;3.15;;;1.08;;
48871;SDS011;36154;51.674;7.824;2023-06-14T13:10:23;2.60;;;1.15;;
48871;SDS011;36154;51.674;7.824;2023-06-14T13:12:48;4.88;;;1.27;;
48871;SDS011;36154;51.674;7.824;2023-06-14T13:15:14;1.35;;;1.10;;
48871;SDS011;36154;51.674;7.824;2023-06-14T13:17:39;1.42;;;1.10;;
48871;SDS011;36154;51.674;7.824;2023-06-14T13:20:06;3.38;;;1.35;;
48871;SDS011;36154;51.674;7.824;2023-06-14T13:22:31;3.38;;;1.33;;
48871;SDS011;36154;51.674;7.824;2023-06-14T13:24:57;5.05;;;1.25;;
48871;SDS011;36154;51.674;7.824;2023-06-14T13:27:22;1.23;;;0.90;;
48871;SDS011;36154;51.674;7.824;2023-06-14T13:29:49;2.75;;;1.13;;
48871;SDS011;36154;51.674;7.824;2023-06-14T13:32:14;2.28;;;0.88;;
48871;SDS011;36154;51.674;7.824;2023-06-14T13:34:40;3.88;;;0.98;;
48871;SDS011;36154;51.674;7.824;2023-06-14T13:37:05;1.67;;;0.70;;
48871;SDS011;36154;51.674;7.824;2023-06-14T13:39:30;0.82;;;0.70;;
48871;SDS011;36154;51.674;7.824;2023-06-14T13:41:56;1.73;;;0.50;;
48871;SDS011;36154;51.674;7.824;2023-06-14T13:44:23;4.03;;;0.70;;
48871;SDS011;36154;51.674;7.824;2023-06-14T13:46:49;0.50;;;0.50;;
48871;SDS011;36154;51.674;7.824;2023-06-14T13:49:15;2.25;;;0.32;;
48871;SDS011;36154;51.674;7.824;2023-06-14T13:51:40;1.60;;;0.60;;
48871;SDS011;36154;51.674;7.824;2023-06-14T13:54:05;0.60;;;0.50;;
48871;SDS011;36154;51.674;7.824;2023-06-14T13:56:31;0.45;;;0.40;;
48871;SDS011;36154;51.674;7.824;2023-06-14T13:58:56;0.35;;;0.25;;
48871;SDS011;36154;51.674;7.824;2023-06-14T14:01:21;0.63;;;0.30;;
48871;SDS011;36154;51.674;7.824;2023-06-14T14:03:47;0.82;;;0.30;;
48871;SDS011;36154;51.674;7.824;2023-06-14T14:06:14;0.32;;;0.20;;
48871;SDS011;36154;51.674;7.824;2023-06-14T14:08:40;1.67;;;0.20;;
48871;SDS011;36154;51.674;7.824;2023-06-14T14:11:05;0.13;;;0.13;;
48871;SDS011;36154;51.674;7.824;2023-06-14T14:13:31;0.20;;;0.20;;
48871;SDS011;36154;51.674;7.824;2023-06-14T14:15:56;0.35;;;0.20;;
48871;SDS011;36154;51.674;7.824;2023-06-14T14:18:21;0.28;;;0.20;;
48871;SDS011;36154;51.674;7.824;2023-06-14T14:20:47;0.13;;;0.13;;
48871;SDS011;36154;51.674;7.824;2023-06-14T14:23:13;0.85;;;0.20;;
48871;SDS011;36154;51.674;7.824;2023-06-14T14:25:38;0.10;;;0.10;;
48871;SDS011;36154;51.674;7.824;2023-06-14T14:28:03;0.20;;;0.20;;
48871;SDS011;36154;51.674;7.824;2023-06-14T14:30:29;1.08;;;0.20;;
48871;SDS011;36154;51.674;7.824;2023-06-14T14:32:54;0.20;;;0.13;;
48871;SDS011;36154;51.674;7.824;2023-06-14T14:35:20;1.55;;;0.17;;
48871;SDS011;36154;51.674;7.824;2023-06-14T14:37:47;0.25;;;0.20;;
48871;SDS011;36154;51.674;7.824;2023-06-14T14:40:12;0.20;;;0.20;;
48871;SDS011;36154;51.674;7.824;2023-06-14T14:42:38;0.13;;;0.10;;
48871;SDS011;36154;51.674;7.824;2023-06-14T14:45:03;0.20;;;0.10;;
48871;SDS011;36154;51.674;7.824;2023-06-14T14:47:29;1.25;;;0.10;;
48871;SDS011;36154;51.674;7.824;2023-06-14T14:49:54;0.10;;;0.10;;
48871;SDS011;36154;51.674;7.824;2023-06-14T14:52:20;0.10;;;0.10;;
48871;SDS011;36154;51.674;7.824;2023-06-14T14:54:45;0.10;;;0.10;;